sensor_id;sensor_type;location;lat;lon;timestamp;pressure;altitude;pressure_sealevel;temperature;humidity
76496;BME280;65329;52.544;4.662;2024-02-21T00:01:27;117940.31;;;-139.74;0.00
76496;BME280;65329;52.544;4.662;2024-02-21T00:03:54;117940.31;;;-139.74;0.00
76496;BME280;65329;52.544;4.662;2024-02-21T00:06:21;117940.31;;;-139.74;0.00
76496;BME280;65329;52.544;4.662;2024-02-21T00:08:47;117940.31;;;-139.74;0.00
76496;BME280;65329;52.544;4.662;2024-02-21T00:11:14;117940.31;;;-139.74;0.00
76496;BME280;65329;52.544;4.662;2024-02-21T00:13:41;117940.31;;;-139.74;0.00
76496;BME280;65329;52.544;4.662;2024-02-21T00:16:08;117940.31;;;-139.74;0.00
76496;BME280;65329;52.544;4.662;2024-02-21T00:18:37;117940.31;;;-139.74;0.00
76496;BME280;65329;52.544;4.662;2024-02-21T00:21:04;117940.31;;;-139.74;0.00
76496;BME280;65329;52.544;4.662;2024-02-21T00:23:31;117940.31;;;-139.74;0.00
76496;BME280;65329;52.544;4.662;2024-02-21T00:25:57;117940.31;;;-139.74;0.00
76496;BME280;65329;52.544;4.662;2024-02-21T00:28:24;117940.31;;;-139.74;0.00
76496;BME280;65329;52.544;4.662;2024-02-21T00:30:51;117940.31;;;-139.74;0.00
76496;BME280;65329;52.544;4.662;2024-02-21T00:33:19;117940.31;;;-139.74;0.00
76496;BME280;65329;52.544;4.662;2024-02-21T00:35:47;117940.31;;;-139.74;0.00
76496;BME280;65329;52.544;4.662;2024-02-21T00:38:14;117940.31;;;-139.74;0.00
76496;BME280;65329;52.544;4.662;2024-02-21T00:40:41;117940.31;;;-139.74;0.00
76496;BME280;65329;52.544;4.662;2024-02-21T00:43:09;117940.31;;;-139.74;0.00
76496;BME280;65329;52.544;4.662;2024-02-21T00:45:36;117940.31;;;-139.74;0.00
76496;BME280;65329;52.544;4.662;2024-02-21T00:48:04;117940.31;;;-139.74;0.00
76496;BME280;65329;52.544;4.662;2024-02-21T00:50:31;117940.31;;;-139.74;0.00
76496;BME280;65329;52.544;4.662;2024-02-21T00:52:58;117940.31;;;-139.74;0.00
76496;BME280;65329;52.544;4.662;2024-02-21T00:55:24;117940.31;;;-139.74;0.00
76496;BME280;65329;52.544;4.662;2024-02-21T00:57:51;117940.31;;;-139.74;0.00
76496;BME280;65329;52.544;4.662;2024-02-21T01:00:18;117940.31;;;-139.74;0.00
76496;BME280;65329;52.544;4.662;2024-02-21T01:02:45;117940.31;;;-139.74;0.00
76496;BME280;65329;52.544;4.662;2024-02-21T01:05:14;117940.31;;;-139.74;0.00
76496;BME280;65329;52.544;4.662;2024-02-21T01:07:41;117940.31;;;-139.74;0.00
76496;BME280;65329;52.544;4.662;2024-02-21T01:10:08;117940.31;;;-139.74;0.00
76496;BME280;65329;52.544;4.662;2024-02-21T01:12:35;117940.31;;;-139.74;0.00
76496;BME280;65329;52.544;4.662;2024-02-21T01:15:02;117940.31;;;-139.74;0.00
76496;BME280;65329;52.544;4.662;2024-02-21T01:17:29;117940.31;;;-139.74;0.00
76496;BME280;65329;52.544;4.662;2024-02-21T01:19:56;117940.31;;;-139.74;0.00
76496;BME280;65329;52.544;4.662;2024-02-21T01:22:23;117940.31;;;-139.74;0.00
76496;BME280;65329;52.544;4.662;2024-02-21T01:24:50;117940.31;;;-139.74;0.00
76496;BME280;65329;52.544;4.662;2024-02-21T01:27:16;117940.31;;;-139.74;0.00
76496;BME280;65329;52.544;4.662;2024-02-21T01:29:43;117940.31;;;-139.74;0.00
76496;BME280;65329;52.544;4.662;2024-02-21T01:32:10;117940.31;;;-139.74;0.00
76496;BME280;65329;52.544;4.662;2024-02-21T01:34:37;117940.31;;;-139.74;0.00
76496;BME280;65329;52.544;4.662;2024-02-21T01:37:04;117940.31;;;-139.74;0.00
76496;BME280;65329;52.544;4.662;2024-02-21T01:39:33;117940.31;;;-139.74;0.00
76496;BME280;65329;52.544;4.662;2024-02-21T01:42:00;117940.31;;;-139.74;0.00
76496;BME280;65329;52.544;4.662;2024-02-21T01:44:27;117940.31;;;-139.74;0.00
76496;BME280;65329;52.544;4.662;2024-02-21T01:46:54;117940.31;;;-139.74;0.00
76496;BME280;65329;52.544;4.662;2024-02-21T01:49:22;117940.31;;;-139.74;0.00
76496;BME280;65329;52.544;4.662;2024-02-21T01:51:49;117940.31;;;-139.74;0.00
76496;BME280;65329;52.544;4.662;2024-02-21T01:54:17;117940.31;;;-139.74;0.00
76496;BME280;65329;52.544;4.662;2024-02-21T01:56:46;117940.31;;;-139.74;0.00
76496;BME280;65329;52.544;4.662;2024-02-21T01:59:15;117940.31;;;-139.74;0.00
76496;BME280;65329;52.544;4.662;2024-02-21T02:01:43;117940.31;;;-139.74;0.00
76496;BME280;65329;52.544;4.662;2024-02-21T02:04:11;117940.31;;;-139.74;0.00
76496;BME280;65329;52.544;4.662;2024-02-21T02:06:38;117940.31;;;-139.74;0.00
76496;BME280;65329;52.544;4.662;2024-02-21T02:09:05;117940.31;;;-139.74;0.00
76496;BME280;65329;52.544;4.662;2024-02-21T02:11:32;117940.31;;;-139.74;0.00
76496;BME280;65329;52.544;4.662;2024-02-21T02:13:59;117940.31;;;-139.74;0.00
76496;BME280;65329;52.544;4.662;2024-02-21T02:16:26;117940.31;;;-139.74;0.00
76496;BME280;65329;52.544;4.662;2024-02-21T02:18:53;117940.31;;;-139.74;0.00
76496;BME280;65329;52.544;4.662;2024-02-21T02:21:27;117940.31;;;-139.74;21.46
76496;BME280;65329;52.544;4.662;2024-02-21T02:23:55;117940.31;;;-139.74;16.84
76496;BME280;65329;52.544;4.662;2024-02-21T02:26:23;117940.31;;;-139.74;17.91
76496;BME280;65329;52.544;4.662;2024-02-21T02:28:50;117940.31;;;-139.74;22.86
76496;BME280;65329;52.544;4.662;2024-02-21T02:31:17;117940.31;;;-139.74;25.17
76496;BME280;65329;52.544;4.662;2024-02-21T02:33:43;117940.31;;;-139.74;25.27
76496;BME280;65329;52.544;4.662;2024-02-21T02:36:11;117940.31;;;-139.74;25.43
76496;BME280;65329;52.544;4.662;2024-02-21T02:38:38;117940.31;;;-139.74;22.00
76496;BME280;65329;52.544;4.662;2024-02-21T02:41:05;117940.31;;;-139.74;18.54
76496;BME280;65329;52.544;4.662;2024-02-21T02:43:32;117940.31;;;-139.74;18.97
76496;BME280;65329;52.544;4.662;2024-02-21T02:45:59;117940.31;;;-139.74;15.71
76496;BME280;65329;52.544;4.662;2024-02-21T02:48:25;117940.31;;;-139.74;12.72
76496;BME280;65329;52.544;4.662;2024-02-21T02:50:52;117940.31;;;-139.74;9.21
76496;BME280;65329;52.544;4.662;2024-02-21T02:53:19;117940.31;;;-139.74;6.57
76496;BME280;65329;52.544;4.662;2024-02-21T02:55:46;117940.31;;;-139.74;6.28
76496;BME280;65329;52.544;4.662;2024-02-21T02:58:13;117940.31;;;-139.74;4.10
76496;BME280;65329;52.544;4.662;2024-02-21T03:00:40;117940.31;;;-139.74;1.67
76496;BME280;65329;52.544;4.662;2024-02-21T03:03:06;117940.31;;;-139.74;0.00
76496;BME280;65329;52.544;4.662;2024-02-21T03:05:35;117940.31;;;-139.74;0.00
76496;BME280;65329;52.544;4.662;2024-02-21T03:08:02;117940.31;;;-139.74;0.00
76496;BME280;65329;52.544;4.662;2024-02-21T03:10:33;117940.31;;;-139.74;0.00
76496;BME280;65329;52.544;4.662;2024-02-21T03:13:00;117940.31;;;-139.74;0.00
76496;BME280;65329;52.544;4.662;2024-02-21T03:15:27;117940.31;;;-139.74;0.00
76496;BME280;65329;52.544;4.662;2024-02-21T03:17:54;117940.31;;;-139.74;0.00
76496;BME280;65329;52.544;4.662;2024-02-21T03:20:21;117940.31;;;-139.74;0.00
76496;BME280;65329;52.544;4.662;2024-02-21T03:22:48;117940.31;;;-139.74;0.00
76496;BME280;65329;52.544;4.662;2024-02-21T03:25:16;117940.31;;;-139.74;0.00
76496;BME280;65329;52.544;4.662;2024-02-21T03:27:43;117940.31;;;-139.74;0.00
76496;BME280;65329;52.544;4.662;2024-02-21T03:30:10;117940.31;;;-139.74;0.00
76496;BME280;65329;52.544;4.662;2024-02-21T03:32:39;117940.31;;;-139.74;0.00
76496;BME280;65329;52.544;4.662;2024-02-21T03:35:06;117940.31;;;-139.74;0.00
76496;BME280;65329;52.544;4.662;2024-02-21T03:37:33;117940.31;;;-139.74;0.12
76496;BME280;65329;52.544;4.662;2024-02-21T03:40:00;117940.31;;;-139.74;0.97
76496;BME280;65329;52.544;4.662;2024-02-21T03:42:27;117940.31;;;-139.74;0.00
76496;BME280;65329;52.544;4.662;2024-02-21T03:44:56;117940.31;;;-139.74;0.00
76496;BME280;65329;52.544;4.662;2024-02-21T03:47:23;117940.31;;;-139.74;0.00
76496;BME280;65329;52.544;4.662;2024-02-21T03:49:50;117940.31;;;-139.74;0.50
76496;BME280;65329;52.544;4.662;2024-02-21T03:52:17;117940.31;;;-139.74;0.00
76496;BME280;65329;52.544;4.662;2024-02-21T03:54:44;117940.31;;;-139.74;0.00
76496;BME280;65329;52.544;4.662;2024-02-21T03:57:11;117940.31;;;-139.74;0.00
76496;BME280;65329;52.544;4.662;2024-02-21T03:59:38;117940.31;;;-139.74;1.58
76496;BME280;65329;52.544;4.662;2024-02-21T04:02:10;117940.31;;;-139.74;2.78
76496;BME280;65329;52.544;4.662;2024-02-21T04:04:37;117940.31;;;-139.74;4.86
76496;BME280;65329;52.544;4.662;2024-02-21T04:07:04;117940.31;;;-139.74;5.58
76496;BME280;65329;52.544;4.662;2024-02-21T04:09:35;117940.31;;;-139.74;6.93
76496;BME280;65329;52.544;4.662;2024-02-21T04:12:02;117940.31;;;-139.74;5.18
76496;BME280;65329;52.544;4.662;2024-02-21T04:14:29;117940.31;;;-139.74;7.16
76496;BME280;65329;52.544;4.662;2024-02-21T04:16:55;117940.31;;;-139.74;9.46
76496;BME280;65329;52.544;4.662;2024-02-21T04:19:22;117940.31;;;-139.74;12.97
76496;BME280;65329;52.544;4.662;2024-02-21T04:21:49;117940.31;;;-139.74;16.39
76496;BME280;65329;52.544;4.662;2024-02-21T04:24:16;117940.31;;;-139.74;19.35
76496;BME280;65329;52.544;4.662;2024-02-21T04:26:43;117940.31;;;-139.74;20.66
76496;BME280;65329;52.544;4.662;2024-02-21T04:29:11;117940.31;;;-139.74;18.56
76496;BME280;65329;52.544;4.662;2024-02-21T04:31:38;117940.31;;;-139.74;18.77
76496;BME280;65329;52.544;4.662;2024-02-21T04:34:06;117940.31;;;-139.74;19.51
76496;BME280;65329;52.544;4.662;2024-02-21T04:36:33;117940.31;;;-139.74;17.33
76496;BME280;65329;52.544;4.662;2024-02-21T04:39:00;117940.31;;;-139.74;17.04
76496;BME280;65329;52.544;4.662;2024-02-21T04:41:27;117940.31;;;-139.74;16.57
76496;BME280;65329;52.544;4.662;2024-02-21T04:43:54;117940.31;;;-139.74;21.18
76496;BME280;65329;52.544;4.662;2024-02-21T04:46:21;117940.31;;;-139.74;20.07
76496;BME280;65329;52.544;4.662;2024-02-21T04:48:48;117940.31;;;-139.74;21.17
76496;BME280;65329;52.544;4.662;2024-02-21T04:51:15;117940.31;;;-139.74;21.52
76496;BME280;65329;52.544;4.662;2024-02-21T04:53:42;117940.31;;;-139.74;22.86
76496;BME280;65329;52.544;4.662;2024-02-21T04:56:09;117940.31;;;-139.74;22.07
76496;BME280;65329;52.544;4.662;2024-02-21T04:58:40;117940.31;;;-139.74;21.08
76496;BME280;65329;52.544;4.662;2024-02-21T05:01:07;117940.31;;;-139.74;20.83
76496;BME280;65329;52.544;4.662;2024-02-21T05:03:35;117940.31;;;-139.74;18.10
76496;BME280;65329;52.544;4.662;2024-02-21T05:06:01;117940.31;;;-139.74;21.95
76496;BME280;65329;52.544;4.662;2024-02-21T05:08:28;117940.31;;;-139.74;25.49
76496;BME280;65329;52.544;4.662;2024-02-21T05:10:55;117940.31;;;-139.74;18.07
76496;BME280;65329;52.544;4.662;2024-02-21T05:13:22;117940.31;;;-139.74;18.43
76496;BME280;65329;52.544;4.662;2024-02-21T05:15:49;117940.31;;;-139.74;15.29
76496;BME280;65329;52.544;4.662;2024-02-21T05:18:16;117940.31;;;-139.74;13.87
76496;BME280;65329;52.544;4.662;2024-02-21T05:20:43;117940.31;;;-139.74;8.70
76496;BME280;65329;52.544;4.662;2024-02-21T05:23:10;117940.31;;;-139.74;3.84
76496;BME280;65329;52.544;4.662;2024-02-21T05:25:37;117940.31;;;-139.74;2.66
76496;BME280;65329;52.544;4.662;2024-02-21T05:28:04;117940.31;;;-139.74;5.40
76496;BME280;65329;52.544;4.662;2024-02-21T05:30:33;117940.31;;;-139.74;5.69
76496;BME280;65329;52.544;4.662;2024-02-21T05:33:04;117940.31;;;-139.74;0.00
76496;BME280;65329;52.544;4.662;2024-02-21T05:35:31;117940.31;;;-139.74;0.00
76496;BME280;65329;52.544;4.662;2024-02-21T05:37:58;117940.31;;;-139.74;0.00
76496;BME280;65329;52.544;4.662;2024-02-21T05:40:26;117940.31;;;-139.74;0.00
76496;BME280;65329;52.544;4.662;2024-02-21T05:42:53;117940.31;;;-139.74;0.00
76496;BME280;65329;52.544;4.662;2024-02-21T05:45:20;117940.31;;;-139.74;0.00
76496;BME280;65329;52.544;4.662;2024-02-21T05:47:47;117940.31;;;-139.74;0.00
76496;BME280;65329;52.544;4.662;2024-02-21T05:50:14;117940.31;;;-139.74;0.00
76496;BME280;65329;52.544;4.662;2024-02-21T05:52:41;117940.31;;;-139.74;0.00
76496;BME280;65329;52.544;4.662;2024-02-21T05:55:08;117940.31;;;-139.74;0.00
76496;BME280;65329;52.544;4.662;2024-02-21T05:57:37;117940.31;;;-139.74;0.00
76496;BME280;65329;52.544;4.662;2024-02-21T06:00:05;117940.31;;;-139.74;0.00
76496;BME280;65329;52.544;4.662;2024-02-21T06:02:37;117940.31;;;-139.74;0.00
76496;BME280;65329;52.544;4.662;2024-02-21T06:05:04;117940.31;;;-139.74;0.00
76496;BME280;65329;52.544;4.662;2024-02-21T06:07:34;117940.31;;;-139.74;0.00
76496;BME280;65329;52.544;4.662;2024-02-21T06:10:02;117940.31;;;-139.74;0.00
76496;BME280;65329;52.544;4.662;2024-02-21T06:12:29;117940.31;;;-139.74;0.00
76496;BME280;65329;52.544;4.662;2024-02-21T06:14:56;117940.31;;;-139.74;0.00
76496;BME280;65329;52.544;4.662;2024-02-21T06:17:23;117940.31;;;-139.74;0.00
76496;BME280;65329;52.544;4.662;2024-02-21T06:19:50;117940.31;;;-139.74;0.00
76496;BME280;65329;52.544;4.662;2024-02-21T06:22:17;117940.31;;;-139.74;0.00
76496;BME280;65329;52.544;4.662;2024-02-21T06:24:44;117940.31;;;-139.74;0.00
76496;BME280;65329;52.544;4.662;2024-02-21T06:27:11;117940.31;;;-139.74;0.00
76496;BME280;65329;52.544;4.662;2024-02-21T06:29:38;117940.31;;;-139.74;0.00
76496;BME280;65329;52.544;4.662;2024-02-21T06:32:05;117940.31;;;-139.74;0.00
76496;BME280;65329;52.544;4.662;2024-02-21T06:34:32;117940.31;;;-139.74;0.00
76496;BME280;65329;52.544;4.662;2024-02-21T06:37:00;117940.31;;;-139.74;0.00
76496;BME280;65329;52.544;4.662;2024-02-21T06:39:27;117940.31;;;-139.74;0.00
76496;BME280;65329;52.544;4.662;2024-02-21T06:41:56;117940.31;;;-139.74;0.00
76496;BME280;65329;52.544;4.662;2024-02-21T06:44:28;117940.31;;;-139.74;0.00
76496;BME280;65329;52.544;4.662;2024-02-21T06:46:55;117940.31;;;-139.74;0.00
76496;BME280;65329;52.544;4.662;2024-02-21T06:49:22;117940.31;;;-139.74;0.00
76496;BME280;65329;52.544;4.662;2024-02-21T06:51:53;117940.31;;;-139.74;0.00
76496;BME280;65329;52.544;4.662;2024-02-21T06:54:20;117940.31;;;-139.74;0.00
76496;BME280;65329;52.544;4.662;2024-02-21T06:56:47;117940.31;;;-139.74;0.00
76496;BME280;65329;52.544;4.662;2024-02-21T06:59:14;117940.31;;;-139.74;0.00
76496;BME280;65329;52.544;4.662;2024-02-21T07:01:49;117940.31;;;-139.74;0.00
76496;BME280;65329;52.544;4.662;2024-02-21T07:04:16;117940.31;;;-139.74;0.00
76496;BME280;65329;52.544;4.662;2024-02-21T07:06:43;117940.31;;;-139.74;0.00
76496;BME280;65329;52.544;4.662;2024-02-21T07:09:11;117940.31;;;-139.74;0.00
76496;BME280;65329;52.544;4.662;2024-02-21T07:11:37;117940.31;;;-139.74;0.00
76496;BME280;65329;52.544;4.662;2024-02-21T07:14:04;117940.31;;;-139.74;0.00
76496;BME280;65329;52.544;4.662;2024-02-21T07:16:31;117940.31;;;-139.74;0.00
76496;BME280;65329;52.544;4.662;2024-02-21T07:19:00;117940.31;;;-139.74;0.00
76496;BME280;65329;52.544;4.662;2024-02-21T07:21:27;117940.31;;;-139.74;0.00
76496;BME280;65329;52.544;4.662;2024-02-21T07:23:54;117940.31;;;-139.74;0.00
76496;BME280;65329;52.544;4.662;2024-02-21T07:26:21;117940.31;;;-139.74;0.00
76496;BME280;65329;52.544;4.662;2024-02-21T07:28:48;117940.31;;;-139.74;0.00
76496;BME280;65329;52.544;4.662;2024-02-21T07:31:15;117940.31;;;-139.74;0.00
76496;BME280;65329;52.544;4.662;2024-02-21T07:33:42;117940.31;;;-139.74;0.00
76496;BME280;65329;52.544;4.662;2024-02-21T07:36:11;117940.31;;;-139.74;0.00
76496;BME280;65329;52.544;4.662;2024-02-21T07:38:38;117940.31;;;-139.74;0.00
76496;BME280;65329;52.544;4.662;2024-02-21T07:41:05;117940.31;;;-139.74;0.00
76496;BME280;65329;52.544;4.662;2024-02-21T07:43:32;117940.31;;;-139.74;0.00
76496;BME280;65329;52.544;4.662;2024-02-21T07:46:00;117940.31;;;-139.74;0.00
76496;BME280;65329;52.544;4.662;2024-02-21T07:48:26;117940.31;;;-139.74;0.00
76496;BME280;65329;52.544;4.662;2024-02-21T07:50:53;117940.31;;;-139.74;0.00
76496;BME280;65329;52.544;4.662;2024-02-21T07:53:20;117940.31;;;-139.74;0.00
76496;BME280;65329;52.544;4.662;2024-02-21T07:55:48;117940.31;;;-139.74;0.00
76496;BME280;65329;52.544;4.662;2024-02-21T07:58:14;117940.31;;;-139.74;0.00
76496;BME280;65329;52.544;4.662;2024-02-21T08:00:42;117940.31;;;-139.74;0.00
76496;BME280;65329;52.544;4.662;2024-02-21T08:03:09;117940.31;;;-139.74;0.00
76496;BME280;65329;52.544;4.662;2024-02-21T08:05:36;117940.31;;;-139.74;0.00
76496;BME280;65329;52.544;4.662;2024-02-21T08:08:03;117940.31;;;-139.74;0.00
76496;BME280;65329;52.544;4.662;2024-02-21T08:10:31;117940.31;;;-139.74;0.00
76496;BME280;65329;52.544;4.662;2024-02-21T08:12:58;117940.31;;;-139.74;0.00
76496;BME280;65329;52.544;4.662;2024-02-21T08:15:25;117940.31;;;-139.74;0.00
76496;BME280;65329;52.544;4.662;2024-02-21T08:17:55;117940.31;;;-139.74;0.00
76496;BME280;65329;52.544;4.662;2024-02-21T08:20:28;117940.31;;;-139.74;0.00
76496;BME280;65329;52.544;4.662;2024-02-21T08:22:55;117940.31;;;-139.74;0.00
76496;BME280;65329;52.544;4.662;2024-02-21T08:25:22;117940.31;;;-139.74;0.00
76496;BME280;65329;52.544;4.662;2024-02-21T08:27:49;117940.31;;;-139.74;0.00
76496;BME280;65329;52.544;4.662;2024-02-21T08:30:15;117940.31;;;-139.74;0.00
76496;BME280;65329;52.544;4.662;2024-02-21T08:32:42;117940.31;;;-139.74;0.00
76496;BME280;65329;52.544;4.662;2024-02-21T08:35:09;117940.31;;;-139.74;0.00
76496;BME280;65329;52.544;4.662;2024-02-21T08:37:36;117940.31;;;-139.74;0.00
76496;BME280;65329;52.544;4.662;2024-02-21T08:40:04;117940.31;;;-139.74;0.00
76496;BME280;65329;52.544;4.662;2024-02-21T08:42:36;117940.31;;;-139.74;0.00
76496;BME280;65329;52.544;4.662;2024-02-21T08:45:03;117940.31;;;-139.74;0.00
76496;BME280;65329;52.544;4.662;2024-02-21T08:47:31;117940.31;;;-139.74;0.00
76496;BME280;65329;52.544;4.662;2024-02-21T08:49:58;117940.31;;;-139.74;0.00
76496;BME280;65329;52.544;4.662;2024-02-21T08:52:30;117940.31;;;-139.74;0.00
76496;BME280;65329;52.544;4.662;2024-02-21T08:54:57;117940.31;;;-139.74;0.00
76496;BME280;65329;52.544;4.662;2024-02-21T08:57:25;117940.31;;;-139.74;0.00
76496;BME280;65329;52.544;4.662;2024-02-21T08:59:52;117940.31;;;-139.74;0.00
76496;BME280;65329;52.544;4.662;2024-02-21T09:02:19;117940.31;;;-139.74;0.00
76496;BME280;65329;52.544;4.662;2024-02-21T09:04:48;117940.31;;;-139.74;0.00
76496;BME280;65329;52.544;4.662;2024-02-21T09:07:15;117940.31;;;-139.74;0.00
76496;BME280;65329;52.544;4.662;2024-02-21T09:09:43;117940.31;;;-139.74;0.00
76496;BME280;65329;52.544;4.662;2024-02-21T09:12:09;117940.31;;;-139.74;0.00
76496;BME280;65329;52.544;4.662;2024-02-21T09:14:37;117940.31;;;-139.74;0.00
76496;BME280;65329;52.544;4.662;2024-02-21T09:17:07;117940.31;;;-139.74;0.00
76496;BME280;65329;52.544;4.662;2024-02-21T09:19:36;117940.31;;;-139.74;0.00
76496;BME280;65329;52.544;4.662;2024-02-21T09:22:04;117940.31;;;-139.74;0.00
76496;BME280;65329;52.544;4.662;2024-02-21T09:24:31;117940.31;;;-139.74;0.00
76496;BME280;65329;52.544;4.662;2024-02-21T09:26:58;117940.31;;;-139.74;0.00
76496;BME280;65329;52.544;4.662;2024-02-21T09:29:25;117940.31;;;-139.74;0.00
76496;BME280;65329;52.544;4.662;2024-02-21T09:31:53;117940.31;;;-139.74;0.00
76496;BME280;65329;52.544;4.662;2024-02-21T09:34:21;117940.31;;;-139.74;0.00
76496;BME280;65329;52.544;4.662;2024-02-21T09:36:49;117940.31;;;-139.74;0.00
76496;BME280;65329;52.544;4.662;2024-02-21T09:39:17;117940.31;;;-139.74;0.00
76496;BME280;65329;52.544;4.662;2024-02-21T09:41:50;117940.31;;;-139.74;0.00
76496;BME280;65329;52.544;4.662;2024-02-21T09:44:24;117940.31;;;-139.74;0.00
76496;BME280;65329;52.544;4.662;2024-02-21T09:47:03;117940.31;;;-139.74;0.00
76496;BME280;65329;52.544;4.662;2024-02-21T09:49:34;117940.31;;;-139.74;0.00
76496;BME280;65329;52.544;4.662;2024-02-21T09:52:05;117940.31;;;-139.74;0.00
76496;BME280;65329;52.544;4.662;2024-02-21T09:54:34;117940.31;;;-139.74;0.00
76496;BME280;65329;52.544;4.662;2024-02-21T09:57:02;117940.31;;;-139.74;0.00
76496;BME280;65329;52.544;4.662;2024-02-21T09:59:32;117940.31;;;-139.74;0.00
76496;BME280;65329;52.544;4.662;2024-02-21T10:02:01;117940.31;;;-139.74;0.00
76496;BME280;65329;52.544;4.662;2024-02-21T10:04:30;117940.31;;;-139.74;0.00
76496;BME280;65329;52.544;4.662;2024-02-21T10:06:57;117940.31;;;-139.74;0.00
76496;BME280;65329;52.544;4.662;2024-02-21T10:09:26;117940.31;;;-139.74;0.00
76496;BME280;65329;52.544;4.662;2024-02-21T10:12:11;117940.31;;;-139.74;0.00
76496;BME280;65329;52.544;4.662;2024-02-21T10:14:39;117940.31;;;-139.74;0.00
76496;BME280;65329;52.544;4.662;2024-02-21T10:17:07;117940.31;;;-139.74;0.00
76496;BME280;65329;52.544;4.662;2024-02-21T10:19:38;117940.31;;;-139.74;0.00
76496;BME280;65329;52.544;4.662;2024-02-21T10:22:08;117940.31;;;-139.74;0.00
76496;BME280;65329;52.544;4.662;2024-02-21T10:24:37;117940.31;;;-139.74;0.00
76496;BME280;65329;52.544;4.662;2024-02-21T10:27:06;117940.31;;;-139.74;0.00
76496;BME280;65329;52.544;4.662;2024-02-21T10:29:39;117940.31;;;-139.74;0.00
76496;BME280;65329;52.544;4.662;2024-02-21T10:32:13;117940.31;;;-139.74;0.00
76496;BME280;65329;52.544;4.662;2024-02-21T10:34:41;117940.31;;;-139.74;0.00
76496;BME280;65329;52.544;4.662;2024-02-21T10:37:11;117940.31;;;-139.74;0.00
76496;BME280;65329;52.544;4.662;2024-02-21T10:39:40;117940.31;;;-139.74;0.00
76496;BME280;65329;52.544;4.662;2024-02-21T10:42:10;117940.31;;;-139.74;0.00
76496;BME280;65329;52.544;4.662;2024-02-21T10:44:39;117940.31;;;-139.74;0.00
76496;BME280;65329;52.544;4.662;2024-02-21T10:47:09;117940.31;;;-139.74;0.00
76496;BME280;65329;52.544;4.662;2024-02-21T10:49:40;117940.31;;;-139.74;0.00
76496;BME280;65329;52.544;4.662;2024-02-21T10:55:19;117940.31;;;-139.74;0.00
76496;BME280;65329;52.544;4.662;2024-02-21T10:57:47;117940.31;;;-139.74;0.00
76496;BME280;65329;52.544;4.662;2024-02-21T11:00:17;117940.31;;;-139.74;0.00
76496;BME280;65329;52.544;4.662;2024-02-21T11:02:46;117940.31;;;-139.74;0.00
76496;BME280;65329;52.544;4.662;2024-02-21T11:05:15;117940.31;;;-139.74;0.00
76496;BME280;65329;52.544;4.662;2024-02-21T11:07:42;117940.31;;;-139.74;0.00
76496;BME280;65329;52.544;4.662;2024-02-21T11:10:26;117940.31;;;-139.74;0.00
76496;BME280;65329;52.544;4.662;2024-02-21T11:15:41;117940.31;;;-139.74;0.00
76496;BME280;65329;52.544;4.662;2024-02-21T11:18:08;117940.31;;;-139.74;0.00
76496;BME280;65329;52.544;4.662;2024-02-21T11:20:37;117940.31;;;-139.74;0.00
76496;BME280;65329;52.544;4.662;2024-02-21T11:23:05;117940.31;;;-139.74;0.00
76496;BME280;65329;52.544;4.662;2024-02-21T11:25:32;117940.31;;;-139.74;0.00
76496;BME280;65329;52.544;4.662;2024-02-21T11:28:02;117940.31;;;-139.74;0.00
76496;BME280;65329;52.544;4.662;2024-02-21T11:30:30;117940.31;;;-139.74;0.00
76496;BME280;65329;52.544;4.662;2024-02-21T11:33:00;117940.31;;;-139.74;0.00
76496;BME280;65329;52.544;4.662;2024-02-21T11:35:33;117940.31;;;-139.74;0.00
76496;BME280;65329;52.544;4.662;2024-02-21T11:38:11;117940.31;;;-139.74;0.00
76496;BME280;65329;52.544;4.662;2024-02-21T11:40:44;117940.31;;;-139.74;0.00
76496;BME280;65329;52.544;4.662;2024-02-21T11:43:12;117940.31;;;-139.74;0.00
76496;BME280;65329;52.544;4.662;2024-02-21T11:45:39;117940.31;;;-139.74;0.00
76496;BME280;65329;52.544;4.662;2024-02-21T11:48:07;117940.31;;;-139.74;0.00
76496;BME280;65329;52.544;4.662;2024-02-21T11:50:35;117940.31;;;-139.74;0.00
76496;BME280;65329;52.544;4.662;2024-02-21T11:53:03;117940.31;;;-139.74;0.00
76496;BME280;65329;52.544;4.662;2024-02-21T11:55:30;117940.31;;;-139.74;0.00
76496;BME280;65329;52.544;4.662;2024-02-21T11:57:57;117940.31;;;-139.74;0.00
76496;BME280;65329;52.544;4.662;2024-02-21T12:00:25;117940.31;;;-139.74;0.00
76496;BME280;65329;52.544;4.662;2024-02-21T12:02:52;117940.31;;;-139.74;0.00
76496;BME280;65329;52.544;4.662;2024-02-21T12:05:19;117940.31;;;-139.74;0.00
76496;BME280;65329;52.544;4.662;2024-02-21T12:07:47;117940.31;;;-139.74;0.00
76496;BME280;65329;52.544;4.662;2024-02-21T12:10:14;117940.31;;;-139.74;0.00
76496;BME280;65329;52.544;4.662;2024-02-21T12:12:42;117940.31;;;-139.74;0.00
76496;BME280;65329;52.544;4.662;2024-02-21T12:15:09;117940.31;;;-139.74;0.00
76496;BME280;65329;52.544;4.662;2024-02-21T12:17:36;117940.31;;;-139.74;0.00
76496;BME280;65329;52.544;4.662;2024-02-21T12:20:05;117940.31;;;-139.74;0.00
76496;BME280;65329;52.544;4.662;2024-02-21T12:22:37;117940.31;;;-139.74;0.00
76496;BME280;65329;52.544;4.662;2024-02-21T12:25:19;117940.31;;;-139.74;0.00
76496;BME280;65329;52.544;4.662;2024-02-21T12:27:47;117940.31;;;-139.74;0.00
76496;BME280;65329;52.544;4.662;2024-02-21T12:30:16;117940.31;;;-139.74;0.00
76496;BME280;65329;52.544;4.662;2024-02-21T12:32:43;117940.31;;;-139.74;0.00
76496;BME280;65329;52.544;4.662;2024-02-21T12:35:10;117940.31;;;-139.74;0.00
76496;BME280;65329;52.544;4.662;2024-02-21T12:37:37;117940.31;;;-139.74;0.00
76496;BME280;65329;52.544;4.662;2024-02-21T12:40:07;117940.31;;;-139.74;0.00
76496;BME280;65329;52.544;4.662;2024-02-21T12:42:34;117940.31;;;-139.74;0.00
76496;BME280;65329;52.544;4.662;2024-02-21T12:45:02;117940.31;;;-139.74;0.00
76496;BME280;65329;52.544;4.662;2024-02-21T12:47:30;117940.31;;;-139.74;0.00